createdAt,value
2022-12-28T00:01:30.288Z,22.22
2022-12-28T00:04:02.855Z,22.23
2022-12-28T00:06:32.784Z,22.14
2022-12-28T00:09:02.438Z,22.22
2022-12-28T00:11:31.141Z,22.22
2022-12-28T00:14:01.321Z,22.21
2022-12-28T00:16:39.534Z,22.19
2022-12-28T00:19:17.152Z,22.20
2022-12-28T00:21:45.713Z,22.20
2022-12-28T00:24:23.939Z,22.22
2022-12-28T00:26:52.191Z,22.21
2022-12-28T00:29:20.113Z,22.20
2022-12-28T00:31:47.665Z,22.21
2022-12-28T00:34:15.510Z,22.22
2022-12-28T00:37:10.050Z,22.22
2022-12-28T00:39:30.742Z,22.16
2022-12-28T00:41:58.102Z,22.22
2022-12-28T00:44:25.546Z,22.23
2022-12-28T00:46:53.002Z,22.24
2022-12-28T00:49:20.376Z,22.25
2022-12-28T00:51:47.894Z,22.25
2022-12-28T00:54:15.368Z,22.18
2022-12-28T00:56:46.470Z,22.25
2022-12-28T00:59:15.369Z,22.25
2022-12-28T01:01:43.369Z,22.27
2022-12-28T01:04:10.888Z,22.28
2022-12-28T01:06:39.912Z,22.22
2022-12-28T01:09:07.332Z,22.27
2022-12-28T01:11:34.763Z,22.28
2022-12-28T01:14:02.864Z,22.29
2022-12-28T01:16:33.309Z,22.29
2022-12-28T01:19:04.669Z,22.30
2022-12-28T01:21:34.311Z,22.31
2022-12-28T01:24:05.193Z,22.25
2022-12-28T01:26:32.743Z,22.32
2022-12-28T01:29:00.256Z,22.31
2022-12-28T01:31:27.914Z,22.33
2022-12-28T01:33:55.539Z,22.34
2022-12-28T01:36:25.521Z,22.33
2022-12-28T01:38:55.884Z,22.35
2022-12-28T01:41:26.561Z,22.35
2022-12-28T01:43:53.956Z,22.36
2022-12-28T01:46:45.864Z,22.37
2022-12-28T01:49:35.068Z,22.38
2022-12-28T01:52:11.674Z,22.33
2022-12-28T01:54:44.222Z,22.33
2022-12-28T01:57:13.879Z,22.35
2022-12-28T01:59:47.232Z,22.38
2022-12-28T02:02:15.566Z,22.44
2022-12-28T02:04:45.352Z,22.45
2022-12-28T02:07:18.678Z,22.46
2022-12-28T02:10:44.226Z,22.45
2022-12-28T02:12:35.173Z,22.48
2022-12-28T02:15:07.288Z,22.48
2022-12-28T02:17:35.026Z,22.44
2022-12-28T02:20:06.148Z,22.51
2022-12-28T02:22:48.654Z,22.51
2022-12-28T02:25:57.786Z,22.51
2022-12-28T02:29:06.391Z,22.47
2022-12-28T02:31:44.195Z,22.54
2022-12-28T02:34:24.397Z,22.54
2022-12-28T02:37:05.397Z,22.55
2022-12-28T02:39:40.924Z,22.50
2022-12-28T02:42:10.352Z,22.51
2022-12-28T02:44:57.572Z,22.57
2022-12-28T02:47:43.494Z,22.54
2022-12-28T02:50:14.411Z,22.60
2022-12-28T02:52:41.799Z,22.62
2022-12-28T02:55:37.552Z,22.61
2022-12-28T02:58:25.123Z,22.62
2022-12-28T03:01:14.203Z,22.57
2022-12-28T03:03:49.224Z,22.64
2022-12-28T03:06:56.822Z,22.64
2022-12-28T03:09:25.074Z,22.65
2022-12-28T03:12:06.251Z,22.59
2022-12-28T03:14:45.015Z,22.67
2022-12-28T03:17:33.088Z,22.68
2022-12-28T03:20:25.533Z,22.68
2022-12-28T03:23:15.162Z,22.69
2022-12-28T03:26:04.841Z,22.69
2022-12-28T03:29:02.758Z,22.69
2022-12-28T03:31:32.960Z,22.70
2022-12-28T03:34:07.239Z,22.71
2022-12-28T03:36:52.368Z,22.69
2022-12-28T03:39:36.458Z,22.71
2022-12-28T03:42:46.321Z,22.72
2022-12-28T03:45:46.041Z,22.71
2022-12-28T03:48:16.121Z,22.72
2022-12-28T03:50:47.539Z,22.69
2022-12-28T03:53:19.618Z,22.72
2022-12-28T03:55:47.123Z,22.67
2022-12-28T03:58:16.838Z,22.73
2022-12-28T04:00:44.283Z,22.73
2022-12-28T04:03:11.858Z,22.67
2022-12-28T04:05:39.437Z,22.73
2022-12-28T04:08:06.827Z,22.73
2022-12-28T04:10:34.616Z,22.66
2022-12-28T04:13:02.080Z,22.73
2022-12-28T04:16:01.873Z,22.72
2022-12-28T04:18:32.088Z,22.72
2022-12-28T04:21:00.149Z,22.73
2022-12-28T04:23:28.663Z,22.72
2022-12-28T04:26:14.616Z,22.67
2022-12-28T04:28:43.883Z,22.68
2022-12-28T04:31:30.583Z,22.67
2022-12-28T04:34:03.367Z,22.74
2022-12-28T04:36:34.603Z,22.74
2022-12-28T04:39:03.486Z,22.76
2022-12-28T04:41:30.882Z,22.76
2022-12-28T04:43:58.515Z,22.71
2022-12-28T04:46:25.943Z,22.74
2022-12-28T04:48:53.583Z,22.78
2022-12-28T04:51:26.451Z,22.73
2022-12-28T04:53:55.201Z,22.79
2022-12-28T04:56:24.350Z,22.73
2022-12-28T04:58:56.444Z,22.75
2022-12-28T05:01:24.605Z,22.80
2022-12-28T05:03:56.495Z,22.79
2022-12-28T05:06:25.752Z,22.80
2022-12-28T05:08:53.508Z,22.80
2022-12-28T05:11:23.983Z,22.74
2022-12-28T05:13:52.123Z,22.81
2022-12-28T05:16:22.104Z,22.82
2022-12-28T05:18:50.313Z,22.81
2022-12-28T05:21:21.921Z,22.82
2022-12-28T05:23:49.486Z,22.81
2022-12-28T05:26:19.843Z,22.81
2022-12-28T05:28:47.965Z,22.81
2022-12-28T05:31:20.759Z,22.81
2022-12-28T05:33:48.704Z,22.81
2022-12-28T05:36:19.282Z,22.81
2022-12-28T05:38:47.246Z,22.78
2022-12-28T05:41:16.576Z,22.81
2022-12-28T05:43:44.622Z,22.80
2022-12-28T05:46:19.400Z,22.80
2022-12-28T05:48:47.801Z,22.80
2022-12-28T05:51:17.946Z,22.81
2022-12-28T05:53:46.068Z,22.79
2022-12-28T05:56:15.829Z,22.73
2022-12-28T05:58:44.699Z,22.80
2022-12-28T06:01:21.141Z,22.80
2022-12-28T06:03:53.306Z,22.75
2022-12-28T06:06:21.148Z,22.81
2022-12-28T06:08:49.276Z,22.80
2022-12-28T06:11:20.362Z,22.75
2022-12-28T06:13:48.138Z,22.81
2022-12-28T06:16:21.915Z,22.81
2022-12-28T06:18:49.963Z,22.80
2022-12-28T06:21:22.521Z,22.80
2022-12-28T06:23:50.671Z,22.74
2022-12-28T06:26:20.988Z,22.80
2022-12-28T06:28:49.316Z,22.80
2022-12-28T06:31:22.450Z,22.80
2022-12-28T06:33:54.053Z,22.80
2022-12-28T06:36:27.742Z,22.80
2022-12-28T06:38:57.396Z,22.81
2022-12-28T06:41:26.117Z,22.73
2022-12-28T06:43:54.654Z,22.80
2022-12-28T06:46:23.763Z,22.75
2022-12-28T06:48:51.730Z,22.80
2022-12-28T06:51:21.947Z,22.80
2022-12-28T06:53:50.943Z,22.80
2022-12-28T06:56:27.245Z,22.79
2022-12-28T06:59:02.047Z,22.78
2022-12-28T07:01:36.682Z,22.79
2022-12-28T07:04:07.903Z,22.81
2022-12-28T07:06:38.258Z,22.79
2022-12-28T07:09:09.841Z,22.81
2022-12-28T07:11:37.306Z,22.80
2022-12-28T07:14:04.846Z,22.82
2022-12-28T07:18:59.323Z,22.82
2022-12-28T07:21:32.467Z,22.82
2022-12-28T07:24:00.317Z,22.80
2022-12-28T07:26:30.862Z,22.82
2022-12-28T07:29:00.322Z,22.82
2022-12-28T07:31:30.900Z,22.83
2022-12-28T07:34:00.048Z,22.83
2022-12-28T07:36:29.295Z,22.83
2022-12-28T07:38:57.231Z,22.84
2022-12-28T07:41:30.132Z,22.84
2022-12-28T07:43:59.617Z,22.85
2022-12-28T07:46:29.663Z,22.67
2022-12-28T07:48:57.717Z,22.86
2022-12-28T07:51:30.667Z,22.87
2022-12-28T07:53:59.631Z,22.79
2022-12-28T07:56:28.827Z,22.88
2022-12-28T07:59:01.221Z,22.82
2022-12-28T08:01:31.920Z,22.88
2022-12-28T08:04:06.139Z,22.89
2022-12-28T08:06:36.796Z,22.89
2022-12-28T08:09:05.586Z,22.87
2022-12-28T08:11:36.144Z,22.86
2022-12-28T08:14:04.849Z,22.87
2022-12-28T08:16:35.657Z,22.86
2022-12-28T08:19:04.004Z,22.85
2022-12-28T08:21:43.006Z,22.83
2022-12-28T08:24:15.456Z,22.81
2022-12-28T08:26:44.250Z,22.76
2022-12-28T08:29:16.199Z,22.78
2022-12-28T08:31:45.151Z,22.77
2022-12-28T08:34:27.411Z,22.76
2022-12-28T08:36:55.900Z,22.74
2022-12-28T08:39:23.448Z,22.74
2022-12-28T08:41:50.879Z,22.74
2022-12-28T08:44:18.285Z,22.68
2022-12-28T08:46:45.883Z,22.68
2022-12-28T08:49:13.670Z,22.72
2022-12-28T08:51:42.158Z,22.72
2022-12-28T08:54:12.308Z,22.71
2022-12-28T08:56:42.665Z,22.64
2022-12-28T08:59:14.221Z,22.69
2022-12-28T09:01:44.631Z,22.69
2022-12-28T09:04:18.743Z,22.66
2022-12-28T09:06:46.867Z,22.65
2022-12-28T09:09:16.007Z,22.58
2022-12-28T09:11:43.793Z,22.58
2022-12-28T09:14:20.329Z,22.61
2022-12-28T09:16:50.202Z,22.63
2022-12-28T09:19:17.916Z,22.63
2022-12-28T09:21:48.905Z,22.62
2022-12-28T09:24:16.627Z,22.62
2022-12-28T09:26:44.133Z,22.61
2022-12-28T09:29:13.769Z,22.56
2022-12-28T09:31:41.760Z,22.63
2022-12-28T09:37:01.128Z,22.61
2022-12-28T09:39:29.049Z,22.61
2022-12-28T09:42:05.275Z,22.55
2022-12-28T09:44:43.498Z,22.61
2022-12-28T09:47:33.632Z,22.62
2022-12-28T09:50:17.453Z,22.61
2022-12-28T09:53:04.393Z,22.61
2022-12-28T09:55:34.186Z,22.60
2022-12-28T09:58:02.811Z,22.56
2022-12-28T10:00:39.505Z,22.64
2022-12-28T10:03:19.325Z,22.62
2022-12-28T10:05:47.142Z,22.62
2022-12-28T10:08:19.058Z,22.60
2022-12-28T10:10:49.243Z,22.60
2022-12-28T10:13:54.269Z,22.57
2022-12-28T10:16:20.842Z,22.57
2022-12-28T10:18:49.157Z,22.57
2022-12-28T10:21:19.939Z,22.57
2022-12-28T10:24:29.807Z,22.50
2022-12-28T10:26:45.612Z,22.58
2022-12-28T10:29:19.172Z,22.58
2022-12-28T10:32:09.531Z,22.51
2022-12-28T10:34:37.552Z,22.56
2022-12-28T10:37:15.564Z,22.56
2022-12-28T10:39:52.503Z,22.56
2022-12-28T10:42:27.579Z,22.57
2022-12-28T10:45:01.136Z,22.57
2022-12-28T10:47:36.351Z,22.49
2022-12-28T10:52:57.898Z,22.58
2022-12-28T10:55:31.335Z,22.58
2022-12-28T10:58:31.752Z,22.59
2022-12-28T11:01:13.485Z,22.61
2022-12-28T11:03:43.923Z,22.56
2022-12-28T11:06:22.793Z,22.61
2022-12-28T11:09:22.112Z,22.76
2022-12-28T11:11:52.617Z,22.78
2022-12-28T11:14:37.873Z,23.05
2022-12-28T11:17:26.607Z,22.97
2022-12-28T11:20:26.815Z,22.95
2022-12-28T11:22:54.903Z,22.97
2022-12-28T11:25:30.162Z,22.93
2022-12-28T11:27:58.276Z,22.96
2022-12-28T11:30:25.826Z,22.89
2022-12-28T11:32:58.578Z,22.90
2022-12-28T11:35:32.714Z,23.00
2022-12-28T11:38:03.191Z,22.95
2022-12-28T11:40:42.622Z,22.79
2022-12-28T11:43:29.573Z,22.77
2022-12-28T11:46:23.691Z,22.73
2022-12-28T11:49:02.113Z,22.64
2022-12-28T11:51:33.758Z,22.67
2022-12-28T11:54:25.523Z,22.65
2022-12-28T11:56:53.109Z,22.65
2022-12-28T11:59:28.946Z,22.62
2022-12-28T12:02:19.615Z,22.60
2022-12-28T12:04:47.154Z,22.58
2022-12-28T12:07:16.811Z,22.57
2022-12-28T12:09:47.841Z,22.49
2022-12-28T12:12:18.040Z,22.56
2022-12-28T12:14:48.889Z,22.56
2022-12-28T12:17:39.712Z,22.54
2022-12-28T12:20:36.131Z,22.54
2022-12-28T12:23:08.358Z,22.54
2022-12-28T12:25:49.683Z,22.51
2022-12-28T12:28:40.522Z,22.53
2022-12-28T12:31:13.567Z,22.50
2022-12-28T12:33:46.361Z,22.53
2022-12-28T12:36:49.323Z,22.46
2022-12-28T12:39:59.045Z,22.51
2022-12-28T12:42:45.457Z,22.51
2022-12-28T12:45:31.945Z,22.44
2022-12-28T12:48:37.612Z,22.42
2022-12-28T12:51:51.271Z,22.48
2022-12-28T12:54:37.596Z,22.48
2022-12-28T12:57:25.186Z,22.46
2022-12-28T13:00:01.038Z,22.47
2022-12-28T13:02:44.223Z,22.47
2022-12-28T13:05:19.285Z,22.42
2022-12-28T13:07:47.038Z,22.46
2022-12-28T13:10:19.889Z,22.37
2022-12-28T13:12:47.344Z,22.48
2022-12-28T13:15:18.568Z,22.47
2022-12-28T13:18:44.486Z,22.47
2022-12-28T13:21:12.551Z,22.41
2022-12-28T13:23:45.286Z,22.45
2022-12-28T13:26:15.220Z,22.40
2022-12-28T13:29:07.775Z,22.39
2022-12-28T13:31:39.658Z,22.45
2022-12-28T13:34:13.080Z,22.44
2022-12-28T13:36:56.740Z,22.44
2022-12-28T13:39:28.746Z,22.38
2022-12-28T13:42:02.543Z,22.45
2022-12-28T13:44:54.745Z,22.47
2022-12-28T13:47:34.656Z,22.46
2022-12-28T13:50:12.971Z,22.40
2022-12-28T13:53:09.397Z,22.46
2022-12-28T13:55:51.640Z,22.46
2022-12-28T13:58:24.669Z,22.41
2022-12-28T14:00:53.853Z,22.39
2022-12-28T14:03:22.323Z,22.44
2022-12-28T14:05:55.145Z,22.42
2022-12-28T14:08:23.075Z,22.39
2022-12-28T14:10:51.588Z,22.41
2022-12-28T14:13:20.364Z,22.43
2022-12-28T14:15:48.796Z,22.42
2022-12-28T14:18:18.227Z,22.40
2022-12-28T14:20:56.219Z,22.42
2022-12-28T14:23:26.487Z,22.42
2022-12-28T14:25:56.370Z,22.41
2022-12-28T14:28:36.141Z,22.41
2022-12-28T14:31:06.020Z,22.41
2022-12-28T14:34:02.574Z,22.40
2022-12-28T14:36:50.573Z,22.33
2022-12-28T14:39:26.602Z,22.37
2022-12-28T14:41:54.814Z,22.35
2022-12-28T14:44:30.695Z,22.39
2022-12-28T14:46:58.238Z,22.38
2022-12-28T14:49:31.428Z,22.30
2022-12-28T14:52:08.006Z,22.37
2022-12-28T14:54:52.415Z,22.37
2022-12-28T14:57:31.879Z,22.38
2022-12-28T15:00:04.362Z,22.36
2022-12-28T15:02:34.960Z,22.29
2022-12-28T15:05:03.462Z,22.36
2022-12-28T15:07:31.847Z,22.34
2022-12-28T15:09:59.194Z,22.34
2022-12-28T15:12:26.698Z,22.33
2022-12-28T15:14:54.059Z,22.33
2022-12-28T15:17:21.390Z,22.33
2022-12-28T15:19:48.731Z,22.34
2022-12-28T15:22:16.084Z,22.33
2022-12-28T15:24:46.470Z,22.33
2022-12-28T15:27:13.829Z,22.23
2022-12-28T15:30:05.071Z,22.33
2022-12-28T15:32:28.611Z,22.30
2022-12-28T15:34:56.061Z,22.30
2022-12-28T15:37:23.614Z,22.31
2022-12-28T15:39:51.210Z,22.31
2022-12-28T15:42:18.557Z,22.30
2022-12-28T15:44:48.483Z,22.30
2022-12-28T15:47:15.971Z,22.30
2022-12-28T15:49:43.325Z,22.24
2022-12-28T15:52:10.689Z,22.30
2022-12-28T15:54:40.323Z,22.24
2022-12-28T15:57:12.846Z,22.23
2022-12-28T15:59:40.251Z,22.28
2022-12-28T16:02:10.623Z,22.27
2022-12-28T16:04:38.235Z,22.28
2022-12-28T16:07:06.062Z,22.32
2022-12-28T16:09:33.534Z,22.29
2022-12-28T16:12:00.975Z,22.22
2022-12-28T16:14:28.375Z,22.27
2022-12-28T16:16:55.821Z,22.23
2022-12-28T16:19:23.243Z,22.27
2022-12-28T16:21:51.824Z,22.18
2022-12-28T16:24:20.317Z,22.27
2022-12-28T16:26:47.894Z,22.20
2022-12-28T16:29:15.311Z,22.25
2022-12-28T16:31:42.779Z,22.25
2022-12-28T16:34:16.212Z,22.18
2022-12-28T16:36:46.047Z,22.18
2022-12-28T16:39:16.683Z,22.24
2022-12-28T16:41:44.205Z,22.22
2022-12-28T16:44:15.363Z,22.25
2022-12-28T16:46:43.131Z,22.18
2022-12-28T16:49:11.504Z,22.25
2022-12-28T16:51:45.114Z,22.18
2022-12-28T16:54:18.010Z,22.26
2022-12-28T16:56:46.698Z,22.18
2022-12-28T16:59:26.295Z,22.26
2022-12-28T17:01:55.426Z,22.23
2022-12-28T17:04:37.686Z,22.24
2022-12-28T17:07:05.160Z,22.24
2022-12-28T17:09:32.548Z,22.25
2022-12-28T17:11:59.904Z,22.24
2022-12-28T17:14:37.237Z,22.24
2022-12-28T17:17:06.281Z,22.17
2022-12-28T17:19:34.365Z,22.24
2022-12-28T17:22:02.066Z,22.26
2022-12-28T17:24:29.784Z,22.25
2022-12-28T17:27:01.687Z,22.25
2022-12-28T17:29:32.866Z,22.25
2022-12-28T17:32:00.293Z,22.26
2022-12-28T17:34:28.923Z,22.26
2022-12-28T17:36:56.308Z,22.25
2022-12-28T17:39:23.755Z,22.25
2022-12-28T17:41:51.356Z,22.19
2022-12-28T17:44:18.809Z,22.26
2022-12-28T17:46:46.154Z,22.28
2022-12-28T17:49:15.827Z,22.27
2022-12-28T17:51:44.650Z,22.28
2022-12-28T17:54:14.226Z,22.28
2022-12-28T17:56:42.968Z,22.27
2022-12-28T17:59:16.537Z,22.26
2022-12-28T18:01:44.030Z,22.28
2022-12-28T18:04:12.276Z,22.28
2022-12-28T18:06:40.479Z,22.29
2022-12-28T18:09:07.796Z,22.22
2022-12-28T18:11:35.296Z,22.29
2022-12-28T18:14:03.036Z,22.30
2022-12-28T18:16:30.645Z,22.30
2022-12-28T18:18:58.028Z,22.30
2022-12-28T18:21:25.515Z,22.31
2022-12-28T18:23:52.923Z,22.32
2022-12-28T18:26:23.149Z,22.31
2022-12-28T18:28:50.497Z,22.32
2022-12-28T18:31:18.468Z,22.31
2022-12-28T18:33:46.148Z,22.28
2022-12-28T18:36:17.640Z,22.33
2022-12-28T18:38:46.455Z,22.35
2022-12-28T18:41:17.065Z,22.34
2022-12-28T18:43:44.531Z,22.36
2022-12-28T18:46:12.418Z,22.35
2022-12-28T18:48:41.027Z,22.30
2022-12-28T18:51:14.555Z,22.36
2022-12-28T18:53:42.272Z,22.37
2022-12-28T18:56:13.441Z,22.38
2022-12-28T18:58:42.122Z,22.31
2022-12-28T19:01:33.033Z,22.33
2022-12-28T19:04:02.623Z,22.38
2022-12-28T19:06:30.367Z,22.39
2022-12-28T19:09:00.184Z,22.41
2022-12-28T19:11:28.620Z,22.33
2022-12-28T19:13:56.891Z,22.40
2022-12-28T19:16:30.980Z,22.40
2022-12-28T19:19:02.769Z,22.41
2022-12-28T19:21:40.202Z,22.41
2022-12-28T19:24:19.012Z,22.40
2022-12-28T19:26:47.235Z,22.40
2022-12-28T19:29:16.447Z,22.41
2022-12-28T19:31:43.922Z,22.38
2022-12-28T19:34:11.395Z,22.40
2022-12-28T19:36:38.894Z,22.40
2022-12-28T19:39:06.422Z,22.35
2022-12-28T19:41:33.884Z,22.40
2022-12-28T19:44:01.490Z,22.35
2022-12-28T19:46:32.331Z,22.35
2022-12-28T19:49:01.861Z,22.42
2022-12-28T19:51:31.989Z,22.41
2022-12-28T19:54:01.193Z,22.40
2022-12-28T19:56:28.852Z,22.41
2022-12-28T19:59:05.076Z,22.41
2022-12-28T20:01:33.365Z,22.41
2022-12-28T20:04:00.818Z,22.40
2022-12-28T20:06:29.296Z,22.40
2022-12-28T20:09:02.063Z,22.41
2022-12-28T20:11:29.721Z,22.37
2022-12-28T20:14:02.334Z,22.43
2022-12-28T20:16:32.226Z,22.41
2022-12-28T20:19:01.668Z,22.43
2022-12-28T20:21:29.384Z,22.42
2022-12-28T20:23:56.800Z,22.39
2022-12-28T20:26:25.155Z,22.41
2022-12-28T20:28:52.790Z,22.37
2022-12-28T20:31:20.632Z,22.41
2022-12-28T20:33:48.453Z,22.41
2022-12-28T20:36:21.389Z,22.33
2022-12-28T20:38:49.583Z,22.41
2022-12-28T20:41:38.802Z,22.36
2022-12-28T20:44:20.609Z,22.39
2022-12-28T20:46:48.134Z,22.41
2022-12-28T20:49:15.576Z,22.38
2022-12-28T20:51:43.935Z,22.35
2022-12-28T20:54:11.335Z,22.40
2022-12-28T20:56:41.668Z,22.32
2022-12-28T20:59:10.721Z,22.39
2022-12-28T21:01:39.849Z,22.38
2022-12-28T21:04:08.824Z,22.38
2022-12-28T21:06:36.470Z,22.32
2022-12-28T21:09:04.466Z,22.31
2022-12-28T21:11:33.238Z,22.38
2022-12-28T21:14:00.716Z,22.38
2022-12-28T21:16:28.076Z,22.34
2022-12-28T21:18:55.490Z,22.31
2022-12-28T21:21:24.956Z,22.37
2022-12-28T21:23:55.101Z,22.36
2022-12-28T21:26:22.581Z,22.37
2022-12-28T21:28:50.108Z,22.30
2022-12-28T21:31:17.613Z,22.37
2022-12-28T21:33:45.341Z,22.36
2022-12-28T21:36:17.989Z,22.37
2022-12-28T21:38:47.339Z,22.37
2022-12-28T21:41:37.639Z,22.37
2022-12-28T21:44:12.663Z,22.35
2022-12-28T21:46:40.821Z,22.36
2022-12-28T21:49:08.836Z,22.35
2022-12-28T21:51:36.344Z,22.37
2022-12-28T21:54:06.529Z,22.37
2022-12-28T21:56:35.508Z,22.34
2022-12-28T21:59:03.786Z,22.35
2022-12-28T22:01:50.175Z,22.35
2022-12-28T22:04:39.303Z,22.36
2022-12-28T22:07:08.950Z,22.35
2022-12-28T22:09:55.543Z,22.34
2022-12-28T22:12:36.817Z,22.34
2022-12-28T22:15:33.716Z,22.33
2022-12-28T22:18:06.475Z,22.29
2022-12-28T22:20:35.622Z,22.34
2022-12-28T22:23:04.167Z,22.26
2022-12-28T22:25:31.971Z,22.26
2022-12-28T22:28:00.591Z,22.32
2022-12-28T22:30:28.591Z,22.26
2022-12-28T22:32:56.143Z,22.32
2022-12-28T22:35:23.777Z,22.31
2022-12-28T22:37:51.229Z,22.32
2022-12-28T22:40:18.812Z,22.28
2022-12-28T22:42:48.504Z,22.29
2022-12-28T22:45:20.863Z,22.26
2022-12-28T22:47:48.760Z,22.32
2022-12-28T22:50:18.596Z,22.30
2022-12-28T22:52:46.285Z,22.29
2022-12-28T22:55:13.874Z,22.26
2022-12-28T22:57:41.237Z,22.29
2022-12-28T23:00:14.247Z,22.29
2022-12-28T23:02:41.770Z,22.28
2022-12-28T23:05:09.372Z,22.31
2022-12-28T23:07:38.656Z,22.28
2022-12-28T23:10:08.137Z,22.30
2022-12-28T23:12:35.738Z,22.37
2022-12-28T23:15:19.673Z,22.39
2022-12-28T23:17:49.205Z,22.34
2022-12-28T23:20:55.824Z,22.39
2022-12-28T23:23:41.803Z,22.39
2022-12-28T23:26:29.373Z,22.39
2022-12-28T23:28:56.808Z,22.33
2022-12-28T23:31:24.218Z,22.39
2022-12-28T23:33:52.680Z,22.37
2022-12-28T23:36:21.522Z,22.35
2022-12-28T23:38:50.626Z,22.36
2022-12-28T23:41:53.391Z,22.39
2022-12-28T23:44:25.714Z,22.33
2022-12-28T23:46:58.938Z,22.41
2022-12-28T23:49:27.133Z,22.39
2022-12-28T23:51:54.929Z,22.39
2022-12-28T23:54:22.331Z,22.37
2022-12-28T23:56:49.895Z,22.40
2022-12-28T23:59:17.291Z,22.40
